Terminal Aerodrome Forecast
Issued by NWS Charleston, WV

Home | Current Version | Previous Version | Text Only | Print | Product List | Glossary On
Versions: 1 2 3 4 5 6 7 8 9 10 11 12 13 14 15 16 17 18 19 20 21 22 23 24 25 26
240
FTUS41 KRLX 091448 AAA
TAFCRW
TAF AMD
KCRW 091448Z 0915/1012 28007KT 6SM -SN SCT015 OVC025
      TEMPO 0915/0918 3SM -SHSN BKN015
     FM091900 26007KT P6SM BKN035=

USA.gov is the U.S. government's official web portal to all federal, state and local government web resources and services.